createdAt,value
2022-12-13T00:01:22.062Z,1.60
2022-12-13T00:03:49.759Z,1.50
2022-12-13T00:06:17.274Z,1.60
2022-12-13T00:08:44.784Z,1.50
2022-12-13T00:11:13.038Z,1.40
2022-12-13T00:13:41.797Z,1.40
2022-12-13T00:16:13.594Z,1.60
2022-12-13T00:18:41.145Z,1.70
2022-12-13T00:21:12.174Z,1.60
2022-12-13T00:23:39.752Z,1.50
2022-12-13T00:26:08.652Z,1.50
2022-12-13T00:28:36.281Z,1.60
2022-12-13T00:31:27.056Z,1.80
2022-12-13T00:33:51.288Z,1.70
2022-12-13T00:36:19.229Z,1.50
2022-12-13T00:38:46.719Z,1.40
2022-12-13T00:41:15.499Z,1.60
2022-12-13T00:43:43.044Z,1.70
2022-12-13T00:46:15.147Z,1.60
2022-12-13T00:48:43.234Z,1.70
2022-12-13T00:51:11.796Z,1.70
2022-12-13T00:53:39.301Z,1.80
2022-12-13T00:56:12.768Z,1.80
2022-12-13T00:58:40.641Z,1.70
2022-12-13T01:01:09.395Z,1.70
2022-12-13T01:03:38.192Z,1.70
2022-12-13T01:06:15.220Z,1.70
2022-12-13T01:08:43.704Z,1.70
2022-12-13T01:11:11.879Z,1.70
2022-12-13T01:13:39.566Z,1.90
2022-12-13T01:16:07.863Z,2.00
2022-12-13T01:18:35.892Z,1.80
2022-12-13T01:21:05.122Z,1.70
2022-12-13T01:23:32.688Z,1.70
2022-12-13T01:26:02.724Z,1.80
2022-12-13T01:28:30.778Z,1.80
2022-12-13T01:30:59.518Z,1.80
2022-12-13T01:33:27.987Z,1.90
2022-12-13T01:35:55.711Z,1.80
2022-12-13T01:38:26.299Z,1.90
2022-12-13T01:40:59.941Z,1.90
2022-12-13T01:43:50.485Z,2.00
2022-12-13T01:46:18.961Z,1.90
2022-12-13T01:48:49.318Z,2.00
2022-12-13T01:51:19.111Z,2.00
2022-12-13T01:53:47.178Z,2.00
2022-12-13T01:56:21.100Z,2.10
2022-12-13T01:58:49.966Z,2.10
2022-12-13T02:01:18.627Z,2.10
2022-12-13T02:03:46.319Z,2.00
2022-12-13T02:06:17.839Z,2.00
2022-12-13T02:08:46.967Z,2.00
2022-12-13T02:11:14.810Z,2.10
2022-12-13T02:13:42.664Z,2.30
2022-12-13T02:16:23.161Z,2.20
2022-12-13T02:19:06.174Z,2.10
2022-12-13T02:21:51.965Z,2.10
2022-12-13T02:24:19.399Z,2.20
2022-12-13T02:26:47.002Z,2.20
2022-12-13T02:29:36.266Z,2.10
2022-12-13T02:32:22.587Z,2.00
2022-12-13T02:35:03.865Z,2.10
2022-12-13T02:37:37.806Z,2.10
2022-12-13T02:40:05.323Z,2.10
2022-12-13T02:42:37.201Z,2.10
2022-12-13T02:45:12.410Z,2.20
2022-12-13T02:47:46.140Z,2.20
2022-12-13T02:50:14.319Z,2.20
2022-12-13T02:52:43.422Z,2.20
2022-12-13T02:55:13.733Z,2.20
2022-12-13T02:57:42.433Z,2.20
2022-12-13T03:00:14.522Z,2.30
2022-12-13T03:02:59.020Z,2.30
2022-12-13T03:05:57.504Z,2.40
2022-12-13T03:08:36.971Z,2.50
2022-12-13T03:11:18.324Z,2.50
2022-12-13T03:14:00.533Z,2.50
2022-12-13T03:16:33.991Z,2.50
2022-12-13T03:19:02.228Z,2.60
2022-12-13T03:21:29.985Z,2.60
2022-12-13T03:23:57.450Z,2.70
2022-12-13T03:26:26.910Z,2.70
2022-12-13T03:28:54.586Z,2.70
2022-12-13T03:31:22.622Z,2.80
2022-12-13T03:33:50.236Z,2.90
2022-12-13T03:36:19.103Z,2.90
2022-12-13T03:38:47.856Z,3.00
2022-12-13T03:41:17.796Z,3.00
2022-12-13T03:43:45.469Z,3.00
2022-12-13T03:46:13.030Z,3.00
2022-12-13T03:48:40.696Z,3.00
2022-12-13T03:51:08.260Z,3.10
2022-12-13T03:53:35.880Z,3.10
2022-12-13T03:56:04.442Z,3.10
2022-12-13T03:58:35.281Z,3.20
2022-12-13T04:01:08.123Z,3.20
2022-12-13T04:03:36.317Z,3.20
2022-12-13T04:06:04.428Z,3.30
2022-12-13T04:08:32.151Z,3.20
2022-12-13T04:10:59.772Z,3.20
2022-12-13T04:13:33.309Z,3.20
2022-12-13T04:16:01.551Z,3.20
2022-12-13T04:18:29.422Z,3.20
2022-12-13T04:20:57.663Z,3.20
2022-12-13T04:23:25.330Z,3.10
2022-12-13T04:25:52.795Z,3.10
2022-12-13T04:28:22.322Z,3.10
2022-12-13T04:30:53.369Z,3.20
2022-12-13T04:33:22.169Z,3.30
2022-12-13T04:35:50.131Z,3.10
2022-12-13T04:38:17.854Z,3.10
2022-12-13T04:40:45.392Z,3.20
2022-12-13T04:43:12.903Z,3.20
2022-12-13T04:45:40.733Z,3.20
2022-12-13T04:48:08.749Z,3.10
2022-12-13T04:50:36.234Z,2.90
2022-12-13T04:53:03.696Z,2.80
2022-12-13T04:55:31.254Z,2.80
2022-12-13T04:57:58.688Z,2.80
2022-12-13T05:00:26.212Z,2.90
2022-12-13T05:02:53.777Z,2.90
2022-12-13T05:05:21.586Z,2.90
2022-12-13T05:07:49.151Z,3.00
2022-12-13T05:10:34.058Z,2.90
2022-12-13T05:13:04.397Z,3.00
2022-12-13T05:15:32.212Z,2.90
2022-12-13T05:18:09.822Z,3.10
2022-12-13T05:20:39.980Z,3.00
2022-12-13T05:23:07.552Z,3.00
2022-12-13T05:25:37.341Z,2.90
2022-12-13T05:28:26.815Z,2.80
2022-12-13T05:30:53.625Z,2.70
2022-12-13T05:33:22.510Z,2.70
2022-12-13T05:35:49.984Z,2.80
2022-12-13T05:38:17.729Z,2.80
2022-12-13T05:40:45.274Z,2.80
2022-12-13T05:43:21.236Z,2.70
2022-12-13T05:45:49.284Z,2.70
2022-12-13T05:48:24.236Z,2.70
2022-12-13T05:51:10.454Z,2.70
2022-12-13T05:53:39.755Z,2.70
2022-12-13T05:56:07.694Z,2.70
2022-12-13T05:58:35.898Z,2.70
2022-12-13T06:01:08.230Z,2.70
2022-12-13T06:03:36.203Z,2.60
2022-12-13T06:06:04.238Z,2.60
2022-12-13T06:08:32.100Z,2.70
2022-12-13T06:11:11.099Z,2.60
2022-12-13T06:13:43.826Z,2.70
2022-12-13T06:16:23.642Z,2.70
2022-12-13T06:19:03.314Z,2.70
2022-12-13T06:21:41.681Z,2.70
2022-12-13T06:24:17.825Z,2.70
2022-12-13T06:26:45.869Z,2.80
2022-12-13T06:29:24.088Z,2.80
2022-12-13T06:32:02.515Z,2.80
2022-12-13T06:34:31.954Z,2.70
2022-12-13T06:37:00.879Z,2.70
2022-12-13T06:39:32.777Z,2.70
2022-12-13T06:42:02.085Z,2.70
2022-12-13T06:44:29.596Z,2.70
2022-12-13T06:47:11.090Z,2.80
2022-12-13T06:49:42.355Z,2.80
2022-12-13T06:52:12.792Z,2.80
2022-12-13T06:54:40.856Z,2.80
2022-12-13T06:57:08.344Z,2.90
2022-12-13T06:59:35.990Z,2.80
2022-12-13T07:02:04.569Z,2.80
2022-12-13T07:04:32.762Z,2.80
2022-12-13T07:07:01.717Z,2.80
2022-12-13T07:09:32.940Z,2.80
2022-12-13T07:12:00.559Z,3.00
2022-12-13T07:14:27.949Z,3.00
2022-12-13T07:17:02.904Z,3.00
2022-12-13T07:19:34.936Z,2.90
2022-12-13T07:22:05.847Z,2.90
2022-12-13T07:24:36.776Z,2.90
2022-12-13T07:27:04.990Z,2.90
2022-12-13T07:29:32.552Z,3.00
2022-12-13T07:32:01.113Z,3.00
2022-12-13T07:34:30.112Z,3.00
2022-12-13T07:36:57.604Z,3.00
2022-12-13T07:39:28.693Z,3.00
2022-12-13T07:41:56.530Z,3.00
2022-12-13T07:44:24.658Z,3.00
2022-12-13T07:46:52.243Z,3.00
2022-12-13T07:49:19.797Z,3.00
2022-12-13T07:51:48.073Z,3.00
2022-12-13T07:54:15.641Z,3.00
2022-12-13T07:56:43.177Z,3.00
2022-12-13T07:59:11.012Z,3.10
2022-12-13T08:01:38.673Z,3.10
2022-12-13T08:04:06.207Z,3.20
2022-12-13T08:06:37.217Z,3.30
2022-12-13T08:09:05.977Z,3.20
2022-12-13T08:11:34.230Z,3.20
2022-12-13T08:14:01.796Z,3.20
2022-12-13T08:16:30.611Z,3.20
2022-12-13T08:19:02.279Z,3.10
2022-12-13T08:21:56.902Z,3.00
2022-12-13T08:24:25.969Z,3.10
2022-12-13T08:26:55.236Z,3.10
2022-12-13T08:29:34.604Z,3.10
2022-12-13T08:32:07.417Z,3.20
2022-12-13T08:34:34.879Z,3.20
2022-12-13T08:37:03.969Z,3.30
2022-12-13T08:39:35.664Z,3.40
2022-12-13T08:42:16.566Z,3.30
2022-12-13T08:44:49.318Z,3.30
2022-12-13T08:47:22.636Z,3.30
2022-12-13T08:50:01.545Z,3.30
2022-12-13T08:52:31.581Z,3.40
2022-12-13T08:54:59.011Z,3.30
2022-12-13T08:57:26.655Z,3.30
2022-12-13T08:59:54.767Z,3.30
2022-12-13T09:02:22.331Z,3.30
2022-12-13T09:04:49.886Z,3.30
2022-12-13T09:07:17.382Z,3.30
2022-12-13T09:09:44.952Z,3.50
2022-12-13T09:12:30.066Z,3.40
2022-12-13T09:15:01.351Z,3.50
2022-12-13T09:17:37.028Z,3.50
2022-12-13T09:20:09.971Z,3.50
2022-12-13T09:23:02.157Z,3.50
2022-12-13T09:25:37.017Z,3.40
2022-12-13T09:28:06.423Z,3.40
2022-12-13T09:30:34.320Z,3.70
2022-12-13T09:33:17.838Z,3.70
2022-12-13T09:35:49.471Z,3.70
2022-12-13T09:38:16.891Z,3.70
2022-12-13T09:40:45.759Z,3.80
2022-12-13T09:43:22.004Z,3.90
2022-12-13T09:45:52.128Z,4.00
2022-12-13T09:48:29.485Z,4.10
2022-12-13T09:51:18.017Z,3.90
2022-12-13T09:53:51.969Z,3.80
2022-12-13T09:56:20.640Z,3.70
2022-12-13T09:58:56.634Z,3.70
2022-12-13T10:01:24.370Z,3.80
2022-12-13T10:03:55.676Z,3.70
2022-12-13T10:06:25.180Z,3.80
2022-12-13T10:08:57.550Z,3.70
2022-12-13T10:11:32.326Z,3.70
2022-12-13T10:14:12.033Z,3.70
2022-12-13T10:16:44.960Z,3.70
2022-12-13T10:19:29.505Z,3.70
2022-12-13T10:22:01.673Z,3.70
2022-12-13T10:24:46.399Z,3.70
2022-12-13T10:27:16.957Z,3.70
2022-12-13T10:30:06.474Z,3.90
2022-12-13T10:32:42.620Z,4.00
2022-12-13T10:35:21.079Z,3.90
2022-12-13T10:37:48.637Z,3.80
2022-12-13T10:40:32.640Z,3.80
2022-12-13T10:43:16.092Z,3.80
2022-12-13T10:45:44.563Z,3.70
2022-12-13T10:48:22.288Z,3.70
2022-12-13T10:50:57.098Z,3.80
2022-12-13T10:53:28.186Z,3.90
2022-12-13T10:55:56.294Z,3.90
2022-12-13T10:58:37.256Z,3.70
2022-12-13T11:01:24.545Z,3.80
2022-12-13T11:04:02.038Z,3.80
2022-12-13T11:06:43.897Z,3.80
2022-12-13T11:09:38.390Z,3.80
2022-12-13T11:12:18.948Z,3.80
2022-12-13T11:15:06.454Z,3.80
2022-12-13T11:17:37.148Z,3.80
2022-12-13T11:20:05.669Z,3.90
2022-12-13T11:22:34.914Z,3.90
2022-12-13T11:25:09.835Z,4.00
2022-12-13T11:27:56.050Z,4.10
2022-12-13T11:30:23.531Z,4.20
2022-12-13T11:33:00.187Z,4.20
2022-12-13T11:35:27.715Z,4.20
2022-12-13T11:38:11.019Z,4.10
2022-12-13T11:40:42.567Z,4.10
2022-12-13T11:43:28.888Z,4.10
2022-12-13T11:45:57.767Z,4.20
2022-12-13T11:48:28.530Z,4.20
2022-12-13T11:50:56.842Z,4.20
2022-12-13T11:53:43.067Z,4.30
2022-12-13T11:56:10.587Z,4.30
2022-12-13T11:59:02.349Z,4.30
2022-12-13T12:01:30.783Z,4.40
2022-12-13T12:04:01.497Z,4.40
2022-12-13T12:06:55.529Z,4.30
2022-12-13T12:09:24.238Z,4.30
2022-12-13T12:11:54.468Z,4.30
2022-12-13T12:14:21.854Z,4.40
2022-12-13T12:16:53.729Z,4.40
2022-12-13T12:19:23.671Z,4.40
2022-12-13T12:25:00.442Z,4.30
2022-12-13T12:27:33.604Z,4.40
2022-12-13T12:30:01.143Z,4.40
2022-12-13T12:32:31.606Z,4.40
2022-12-13T12:35:17.465Z,4.50
2022-12-13T12:37:52.706Z,4.50
2022-12-13T12:41:07.168Z,4.50
2022-12-13T12:43:26.783Z,4.50
2022-12-13T12:46:15.103Z,4.60
2022-12-13T12:49:02.857Z,4.50
2022-12-13T12:51:39.935Z,4.60
2022-12-13T12:54:32.327Z,4.60
2022-12-13T12:57:26.624Z,4.60
2022-12-13T13:00:01.927Z,4.70
2022-12-13T13:02:41.880Z,4.80
2022-12-13T13:05:15.711Z,4.80
2022-12-13T13:07:51.258Z,4.70
2022-12-13T13:10:26.735Z,4.80
2022-12-13T13:13:12.552Z,4.80
2022-12-13T13:15:44.080Z,4.70
2022-12-13T13:18:37.995Z,4.90
2022-12-13T13:21:23.889Z,4.80
2022-12-13T13:24:10.092Z,4.80
2022-12-13T13:26:44.580Z,4.80
2022-12-13T13:29:27.033Z,4.70
2022-12-13T13:32:01.961Z,4.60
2022-12-13T13:34:34.580Z,4.70
2022-12-13T13:37:03.703Z,4.70
2022-12-13T13:39:31.144Z,4.60
2022-12-13T13:42:01.620Z,4.70
2022-12-13T13:44:50.434Z,4.60
2022-12-13T13:47:21.110Z,4.50
2022-12-13T13:49:59.931Z,4.70
2022-12-13T13:52:44.456Z,4.70
2022-12-13T13:55:15.060Z,4.60
2022-12-13T13:58:10.126Z,4.70
2022-12-13T14:00:56.892Z,4.70
2022-12-13T14:03:48.761Z,4.60
2022-12-13T14:06:35.578Z,4.50
2022-12-13T14:09:11.925Z,4.70
2022-12-13T14:11:58.517Z,4.80
2022-12-13T14:14:52.505Z,4.80
2022-12-13T14:17:35.190Z,4.80
2022-12-13T14:20:15.097Z,4.80
2022-12-13T14:22:49.437Z,4.70
2022-12-13T14:25:40.384Z,4.60
2022-12-13T14:28:27.669Z,4.70
2022-12-13T14:30:57.288Z,4.70
2022-12-13T14:33:26.627Z,4.90
2022-12-13T14:35:55.772Z,4.80
2022-12-13T14:38:27.326Z,4.70
2022-12-13T14:40:56.655Z,4.60
2022-12-13T14:43:28.928Z,4.70
2022-12-13T14:45:57.496Z,4.80
2022-12-13T14:48:28.699Z,4.90
2022-12-13T14:50:57.376Z,4.70
2022-12-13T14:53:37.462Z,4.60
2022-12-13T14:56:06.779Z,4.70
2022-12-13T14:58:37.143Z,4.60
2022-12-13T15:01:24.030Z,4.50
2022-12-13T15:04:36.097Z,4.60
2022-12-13T15:07:12.665Z,4.60
2022-12-13T15:09:42.281Z,4.60
2022-12-13T15:12:24.001Z,4.60
2022-12-13T15:14:56.459Z,4.70
2022-12-13T15:17:31.965Z,4.70
2022-12-13T15:20:21.226Z,4.70
2022-12-13T15:22:56.510Z,4.60
2022-12-13T15:25:27.400Z,4.70
2022-12-13T15:27:55.500Z,4.70
2022-12-13T15:30:30.365Z,4.60
2022-12-13T15:33:18.037Z,4.70
2022-12-13T15:35:48.178Z,4.70
2022-12-13T15:38:28.278Z,4.60
2022-12-13T15:40:57.251Z,4.60
2022-12-13T15:43:31.103Z,4.60
2022-12-13T15:45:58.901Z,4.60
2022-12-13T15:48:31.058Z,4.60
2022-12-13T15:51:09.744Z,4.60
2022-12-13T15:53:38.027Z,4.50
2022-12-13T15:56:44.212Z,4.60
2022-12-13T15:59:31.194Z,4.70
2022-12-13T16:01:59.599Z,4.70
2022-12-13T16:04:28.793Z,4.50
2022-12-13T16:06:56.985Z,4.50
2022-12-13T16:09:25.736Z,4.50
2022-12-13T16:11:55.423Z,4.40
2022-12-13T16:14:26.544Z,4.40
2022-12-13T16:16:55.729Z,4.40
2022-12-13T16:19:23.376Z,4.40
2022-12-13T16:21:50.917Z,4.40
2022-12-13T16:24:18.407Z,4.40
2022-12-13T16:26:47.138Z,4.50
2022-12-13T16:29:22.042Z,4.40
2022-12-13T16:31:49.753Z,4.40
2022-12-13T16:34:19.511Z,4.40
2022-12-13T16:36:53.598Z,4.30
2022-12-13T16:39:21.335Z,4.30
2022-12-13T16:41:48.964Z,4.30
2022-12-13T16:44:20.874Z,4.30
2022-12-13T16:47:15.373Z,4.20
2022-12-13T16:49:37.322Z,4.20
2022-12-13T16:52:07.798Z,4.20
2022-12-13T16:54:35.808Z,4.20
2022-12-13T16:57:03.385Z,4.40
2022-12-13T16:59:30.917Z,4.30
2022-12-13T17:01:58.601Z,4.20
2022-12-13T17:04:27.494Z,4.20
2022-12-13T17:06:55.594Z,4.30
2022-12-13T17:09:24.162Z,4.30
2022-12-13T17:11:51.811Z,4.30
2022-12-13T17:14:19.349Z,4.40
2022-12-13T17:16:46.884Z,4.50
2022-12-13T17:19:15.850Z,4.40
2022-12-13T17:21:43.332Z,4.30
2022-12-13T17:24:10.892Z,4.20
2022-12-13T17:26:38.369Z,4.20
2022-12-13T17:29:05.840Z,4.40
2022-12-13T17:31:35.975Z,4.30
2022-12-13T17:34:04.532Z,4.30
2022-12-13T17:36:32.107Z,4.20
2022-12-13T17:38:59.582Z,4.30
2022-12-13T17:41:27.199Z,4.20
2022-12-13T17:43:58.197Z,4.20
2022-12-13T17:46:25.804Z,4.20
2022-12-13T17:48:53.585Z,4.20
2022-12-13T17:51:21.084Z,4.20
2022-12-13T17:53:48.582Z,4.10
2022-12-13T17:56:16.203Z,4.20
2022-12-13T17:58:43.896Z,4.20
2022-12-13T18:01:18.838Z,4.20
2022-12-13T18:03:49.018Z,4.30
2022-12-13T18:06:16.678Z,4.40
2022-12-13T18:08:44.761Z,4.40
2022-12-13T18:11:32.261Z,4.30
2022-12-13T18:14:04.260Z,4.40
2022-12-13T18:16:37.443Z,4.50
2022-12-13T18:19:06.573Z,4.40
2022-12-13T18:21:35.651Z,4.20
2022-12-13T18:24:03.356Z,4.30
2022-12-13T18:26:30.842Z,4.30
2022-12-13T18:28:58.525Z,4.40
2022-12-13T18:31:26.238Z,4.60
2022-12-13T18:33:54.118Z,4.40
2022-12-13T18:36:23.296Z,4.30
2022-12-13T18:38:51.529Z,4.20
2022-12-13T18:41:20.396Z,4.10
2022-12-13T18:43:48.392Z,4.10
2022-12-13T18:46:16.322Z,4.30
2022-12-13T18:48:43.968Z,4.40
2022-12-13T18:51:11.670Z,4.20
2022-12-13T18:53:40.156Z,4.10
2022-12-13T18:56:16.166Z,4.10
2022-12-13T18:58:46.883Z,4.00
2022-12-13T19:01:16.063Z,4.00
2022-12-13T19:03:44.843Z,4.10
2022-12-13T19:06:18.898Z,4.40
2022-12-13T19:08:51.593Z,4.50
2022-12-13T19:11:19.854Z,4.50
2022-12-13T19:13:47.374Z,4.30
2022-12-13T19:16:15.964Z,4.20
2022-12-13T19:18:43.436Z,4.20
2022-12-13T19:21:13.279Z,4.40
2022-12-13T19:23:41.227Z,4.40
2022-12-13T19:26:10.059Z,4.30
2022-12-13T19:28:38.245Z,4.20
2022-12-13T19:31:06.522Z,4.10
2022-12-13T19:33:34.228Z,4.00
2022-12-13T19:36:01.995Z,3.90
2022-12-13T19:38:29.936Z,3.90
2022-12-13T19:40:57.558Z,3.90
2022-12-13T19:43:25.557Z,3.80
2022-12-13T19:45:53.286Z,3.80
2022-12-13T19:48:20.757Z,3.80
2022-12-13T19:50:48.311Z,3.70
2022-12-13T19:53:15.723Z,3.80
2022-12-13T19:55:45.108Z,3.80
2022-12-13T19:58:15.680Z,3.80
2022-12-13T20:00:43.257Z,3.80
2022-12-13T20:03:10.812Z,3.70
2022-12-13T20:05:42.414Z,3.60
2022-12-13T20:08:13.367Z,3.60
2022-12-13T20:10:41.006Z,3.60
2022-12-13T20:13:08.539Z,3.60
2022-12-13T20:15:35.985Z,3.50
2022-12-13T20:18:03.467Z,3.50
2022-12-13T20:20:47.330Z,3.60
2022-12-13T20:23:18.862Z,3.60
2022-12-13T20:25:47.098Z,3.60
2022-12-13T20:28:16.488Z,3.60
2022-12-13T20:30:44.185Z,3.60
2022-12-13T20:33:14.444Z,3.50
2022-12-13T20:36:14.862Z,3.50
2022-12-13T20:38:30.629Z,3.50
2022-12-13T20:41:01.494Z,3.50
2022-12-13T20:43:29.510Z,3.50
2022-12-13T20:46:07.639Z,3.60
2022-12-13T20:48:38.663Z,3.70
2022-12-13T20:51:07.390Z,3.70
2022-12-13T20:53:36.242Z,3.70
2022-12-13T20:56:04.717Z,3.60
2022-12-13T20:58:38.238Z,3.70
2022-12-13T21:01:13.474Z,3.60
2022-12-13T21:03:41.029Z,3.70
2022-12-13T21:06:08.557Z,3.70
2022-12-13T21:08:51.324Z,3.70
2022-12-13T21:11:26.023Z,3.80
2022-12-13T21:13:53.675Z,3.80
2022-12-13T21:16:22.161Z,3.70
2022-12-13T21:18:49.770Z,3.90
2022-12-13T21:21:17.305Z,3.80
2022-12-13T21:23:44.868Z,3.80
2022-12-13T21:26:12.374Z,3.90
2022-12-13T21:28:40.716Z,3.80
2022-12-13T21:31:09.773Z,3.80
2022-12-13T21:33:37.981Z,3.90
2022-12-13T21:36:12.405Z,3.80
2022-12-13T21:38:40.107Z,3.80
2022-12-13T21:41:08.236Z,3.80
2022-12-13T21:43:39.565Z,3.80
2022-12-13T21:46:08.556Z,3.80
2022-12-13T21:48:36.854Z,3.80
2022-12-13T21:51:04.996Z,3.80
2022-12-13T21:53:32.788Z,3.90
2022-12-13T21:56:20.923Z,3.80
2022-12-13T21:59:06.959Z,3.80
2022-12-13T22:01:52.908Z,3.80
2022-12-13T22:04:21.071Z,3.80
2022-12-13T22:06:48.507Z,3.80
2022-12-13T22:09:18.243Z,3.90
2022-12-13T22:11:45.691Z,3.90
2022-12-13T22:14:13.198Z,3.90
2022-12-13T22:16:40.911Z,3.90
2022-12-13T22:19:08.425Z,4.00
2022-12-13T22:21:35.949Z,4.00
2022-12-13T22:24:03.393Z,3.90
2022-12-13T22:26:30.987Z,4.00
2022-12-13T22:29:01.273Z,4.00
2022-12-13T22:31:30.001Z,4.00
2022-12-13T22:33:58.208Z,3.90
2022-12-13T22:36:25.853Z,4.00
2022-12-13T22:38:53.484Z,3.90
2022-12-13T22:41:21.056Z,3.80
2022-12-13T22:43:48.548Z,3.80
2022-12-13T22:46:17.483Z,3.80
2022-12-13T22:48:45.666Z,3.70
2022-12-13T22:51:14.870Z,3.80
2022-12-13T22:53:43.366Z,3.80
2022-12-13T22:56:12.376Z,3.80
2022-12-13T22:58:40.515Z,3.80
2022-12-13T23:01:12.636Z,3.90
2022-12-13T23:03:41.291Z,3.90
2022-12-13T23:06:10.633Z,3.90
2022-12-13T23:08:43.267Z,3.90
2022-12-13T23:11:30.753Z,3.90
2022-12-13T23:13:59.901Z,3.90
2022-12-13T23:16:28.882Z,3.90
2022-12-13T23:19:10.943Z,3.90
2022-12-13T23:21:48.476Z,3.90
2022-12-13T23:24:16.562Z,4.00
2022-12-13T23:26:43.984Z,3.90
2022-12-13T23:29:11.467Z,3.90
2022-12-13T23:31:42.816Z,3.90
2022-12-13T23:34:16.330Z,4.00
2022-12-13T23:36:43.781Z,4.00
2022-12-13T23:39:11.784Z,4.00
2022-12-13T23:41:39.379Z,4.10
2022-12-13T23:44:06.822Z,4.00
2022-12-13T23:46:35.744Z,4.00
2022-12-13T23:49:04.832Z,4.00
2022-12-13T23:51:32.835Z,4.00
2022-12-13T23:54:00.626Z,4.00
2022-12-13T23:56:29.412Z,4.00
2022-12-13T23:58:57.098Z,4.00
